sensor_id;sensor_type;location;lat;lon;timestamp;P1;durP1;ratioP1;P2;durP2;ratioP2
49384;SDS011;36795;45.028;38.968;2022-11-21T00:02:46;21.35;;;4.40;;
49384;SDS011;36795;45.028;38.968;2022-11-21T00:05:32;20.45;;;4.47;;
49384;SDS011;36795;45.028;38.968;2022-11-21T00:08:19;17.15;;;4.85;;
49384;SDS011;36795;45.028;38.968;2022-11-21T00:11:06;18.98;;;5.03;;
49384;SDS011;36795;45.028;38.968;2022-11-21T00:13:52;21.25;;;4.82;;
49384;SDS011;36795;45.028;38.968;2022-11-21T00:16:38;16.85;;;4.90;;
49384;SDS011;36795;45.028;38.968;2022-11-21T00:19:23;19.45;;;4.78;;
49384;SDS011;36795;45.028;38.968;2022-11-21T00:22:10;20.50;;;5.70;;
49384;SDS011;36795;45.028;38.968;2022-11-21T00:24:56;17.92;;;4.18;;
49384;SDS011;36795;45.028;38.968;2022-11-21T00:27:42;20.45;;;5.05;;
49384;SDS011;36795;45.028;38.968;2022-11-21T00:30:28;18.40;;;5.03;;
49384;SDS011;36795;45.028;38.968;2022-11-21T00:33:14;18.17;;;4.78;;
49384;SDS011;36795;45.028;38.968;2022-11-21T00:36:07;18.80;;;4.70;;
49384;SDS011;36795;45.028;38.968;2022-11-21T00:38:54;18.85;;;4.82;;
49384;SDS011;36795;45.028;38.968;2022-11-21T00:41:39;19.17;;;4.57;;
49384;SDS011;36795;45.028;38.968;2022-11-21T00:44:26;20.90;;;4.85;;
49384;SDS011;36795;45.028;38.968;2022-11-21T00:47:12;17.73;;;4.50;;
49384;SDS011;36795;45.028;38.968;2022-11-21T00:49:58;19.40;;;5.87;;
49384;SDS011;36795;45.028;38.968;2022-11-21T00:52:44;22.37;;;4.80;;
49384;SDS011;36795;45.028;38.968;2022-11-21T00:55:30;22.60;;;5.03;;
49384;SDS011;36795;45.028;38.968;2022-11-21T00:58:16;19.67;;;5.22;;
49384;SDS011;36795;45.028;38.968;2022-11-21T01:01:08;17.73;;;4.57;;
49384;SDS011;36795;45.028;38.968;2022-11-21T01:03:56;20.35;;;5.35;;
49384;SDS011;36795;45.028;38.968;2022-11-21T01:06:43;19.00;;;4.97;;
49384;SDS011;36795;45.028;38.968;2022-11-21T01:09:29;19.77;;;5.93;;
49384;SDS011;36795;45.028;38.968;2022-11-21T01:12:16;18.87;;;5.07;;
49384;SDS011;36795;45.028;38.968;2022-11-21T01:15:01;21.20;;;5.00;;
49384;SDS011;36795;45.028;38.968;2022-11-21T01:17:48;23.67;;;5.07;;
49384;SDS011;36795;45.028;38.968;2022-11-21T01:20:37;21.15;;;5.12;;
49384;SDS011;36795;45.028;38.968;2022-11-21T01:23:27;21.00;;;5.25;;
49384;SDS011;36795;45.028;38.968;2022-11-21T01:26:14;21.02;;;5.28;;
49384;SDS011;36795;45.028;38.968;2022-11-21T01:29:03;18.98;;;5.40;;
49384;SDS011;36795;45.028;38.968;2022-11-21T01:31:49;20.12;;;5.40;;
49384;SDS011;36795;45.028;38.968;2022-11-21T01:34:36;16.58;;;4.50;;
49384;SDS011;36795;45.028;38.968;2022-11-21T01:37:22;18.37;;;5.07;;
49384;SDS011;36795;45.028;38.968;2022-11-21T01:40:08;21.45;;;4.90;;
49384;SDS011;36795;45.028;38.968;2022-11-21T01:43:02;18.55;;;5.10;;
49384;SDS011;36795;45.028;38.968;2022-11-21T01:46:03;16.77;;;4.75;;
49384;SDS011;36795;45.028;38.968;2022-11-21T01:52:00;18.48;;;5.12;;
49384;SDS011;36795;45.028;38.968;2022-11-21T01:57:43;19.27;;;4.90;;
49384;SDS011;36795;45.028;38.968;2022-11-21T02:00:34;18.60;;;5.30;;
49384;SDS011;36795;45.028;38.968;2022-11-21T02:03:23;19.08;;;5.28;;
49384;SDS011;36795;45.028;38.968;2022-11-21T02:06:14;18.87;;;5.25;;
49384;SDS011;36795;45.028;38.968;2022-11-21T02:09:00;22.27;;;5.22;;
49384;SDS011;36795;45.028;38.968;2022-11-21T02:11:48;21.17;;;5.00;;
49384;SDS011;36795;45.028;38.968;2022-11-21T02:14:40;17.05;;;5.22;;
49384;SDS011;36795;45.028;38.968;2022-11-21T02:17:28;21.80;;;5.40;;
49384;SDS011;36795;45.028;38.968;2022-11-21T02:20:16;21.87;;;5.43;;
49384;SDS011;36795;45.028;38.968;2022-11-21T02:23:12;20.17;;;5.50;;
49384;SDS011;36795;45.028;38.968;2022-11-21T02:26:06;19.25;;;5.35;;
49384;SDS011;36795;45.028;38.968;2022-11-21T02:28:53;18.73;;;5.12;;
49384;SDS011;36795;45.028;38.968;2022-11-21T02:31:39;22.90;;;5.40;;
49384;SDS011;36795;45.028;38.968;2022-11-21T02:34:25;18.30;;;5.22;;
49384;SDS011;36795;45.028;38.968;2022-11-21T02:37:11;19.77;;;5.90;;
49384;SDS011;36795;45.028;38.968;2022-11-21T02:39:58;20.92;;;5.90;;
49384;SDS011;36795;45.028;38.968;2022-11-21T02:46:06;23.17;;;5.80;;
49384;SDS011;36795;45.028;38.968;2022-11-21T02:48:52;22.58;;;6.28;;
49384;SDS011;36795;45.028;38.968;2022-11-21T02:51:41;22.92;;;5.78;;
49384;SDS011;36795;45.028;38.968;2022-11-21T02:54:27;21.58;;;6.80;;
49384;SDS011;36795;45.028;38.968;2022-11-21T02:57:13;22.75;;;5.95;;
49384;SDS011;36795;45.028;38.968;2022-11-21T02:59:59;20.62;;;6.10;;
49384;SDS011;36795;45.028;38.968;2022-11-21T03:02:45;21.35;;;6.03;;
49384;SDS011;36795;45.028;38.968;2022-11-21T03:05:31;33.22;;;7.57;;
49384;SDS011;36795;45.028;38.968;2022-11-21T03:08:18;28.35;;;8.32;;
49384;SDS011;36795;45.028;38.968;2022-11-21T03:11:04;27.83;;;7.15;;
49384;SDS011;36795;45.028;38.968;2022-11-21T03:13:50;22.55;;;6.65;;
49384;SDS011;36795;45.028;38.968;2022-11-21T03:16:36;34.22;;;7.03;;
49384;SDS011;36795;45.028;38.968;2022-11-21T03:19:22;22.85;;;6.93;;
49384;SDS011;36795;45.028;38.968;2022-11-21T03:22:08;26.12;;;7.78;;
49384;SDS011;36795;45.028;38.968;2022-11-21T03:24:55;28.42;;;7.57;;
49384;SDS011;36795;45.028;38.968;2022-11-21T03:27:41;26.83;;;8.75;;
49384;SDS011;36795;45.028;38.968;2022-11-21T03:30:27;29.58;;;9.10;;
49384;SDS011;36795;45.028;38.968;2022-11-21T03:33:13;30.67;;;7.53;;
49384;SDS011;36795;45.028;38.968;2022-11-21T03:35:59;31.20;;;8.25;;
49384;SDS011;36795;45.028;38.968;2022-11-21T03:38:45;29.55;;;8.35;;
49384;SDS011;36795;45.028;38.968;2022-11-21T03:41:31;34.50;;;9.65;;
49384;SDS011;36795;45.028;38.968;2022-11-21T03:44:17;28.65;;;7.20;;
49384;SDS011;36795;45.028;38.968;2022-11-21T03:47:04;27.77;;;8.48;;
49384;SDS011;36795;45.028;38.968;2022-11-21T03:49:49;37.90;;;9.45;;
49384;SDS011;36795;45.028;38.968;2022-11-21T03:52:36;38.95;;;9.27;;
49384;SDS011;36795;45.028;38.968;2022-11-21T03:55:21;32.15;;;9.02;;
49384;SDS011;36795;45.028;38.968;2022-11-21T03:58:07;34.83;;;10.85;;
49384;SDS011;36795;45.028;38.968;2022-11-21T04:00:54;39.00;;;9.82;;
49384;SDS011;36795;45.028;38.968;2022-11-21T04:03:41;28.35;;;8.73;;
49384;SDS011;36795;45.028;38.968;2022-11-21T04:06:27;48.50;;;11.05;;
49384;SDS011;36795;45.028;38.968;2022-11-21T04:09:15;31.87;;;9.60;;
49384;SDS011;36795;45.028;38.968;2022-11-21T04:12:01;36.22;;;9.98;;
49384;SDS011;36795;45.028;38.968;2022-11-21T04:14:47;29.05;;;9.45;;
49384;SDS011;36795;45.028;38.968;2022-11-21T04:17:33;29.33;;;8.65;;
49384;SDS011;36795;45.028;38.968;2022-11-21T04:20:19;33.60;;;8.98;;
49384;SDS011;36795;45.028;38.968;2022-11-21T04:23:05;27.10;;;9.68;;
49384;SDS011;36795;45.028;38.968;2022-11-21T04:25:52;28.85;;;8.07;;
49384;SDS011;36795;45.028;38.968;2022-11-21T04:28:38;36.70;;;10.25;;
49384;SDS011;36795;45.028;38.968;2022-11-21T04:31:25;31.25;;;10.50;;
49384;SDS011;36795;45.028;38.968;2022-11-21T04:34:10;31.90;;;9.38;;
49384;SDS011;36795;45.028;38.968;2022-11-21T04:36:56;31.30;;;10.90;;
49384;SDS011;36795;45.028;38.968;2022-11-21T04:39:42;33.40;;;9.93;;
49384;SDS011;36795;45.028;38.968;2022-11-21T04:42:29;38.05;;;10.25;;
49384;SDS011;36795;45.028;38.968;2022-11-21T04:45:14;30.55;;;9.60;;
49384;SDS011;36795;45.028;38.968;2022-11-21T04:48:01;29.08;;;9.88;;
49384;SDS011;36795;45.028;38.968;2022-11-21T04:50:48;35.13;;;10.10;;
49384;SDS011;36795;45.028;38.968;2022-11-21T04:53:34;33.97;;;9.88;;
49384;SDS011;36795;45.028;38.968;2022-11-21T04:56:20;41.30;;;11.82;;
49384;SDS011;36795;45.028;38.968;2022-11-21T04:59:07;34.15;;;11.88;;
49384;SDS011;36795;45.028;38.968;2022-11-21T05:01:55;31.08;;;8.95;;
49384;SDS011;36795;45.028;38.968;2022-11-21T05:04:42;29.27;;;9.32;;
49384;SDS011;36795;45.028;38.968;2022-11-21T05:07:28;32.90;;;10.00;;
49384;SDS011;36795;45.028;38.968;2022-11-21T05:10:14;31.08;;;9.38;;
49384;SDS011;36795;45.028;38.968;2022-11-21T05:13:00;23.02;;;7.15;;
49384;SDS011;36795;45.028;38.968;2022-11-21T05:16:05;23.98;;;6.95;;
49384;SDS011;36795;45.028;38.968;2022-11-21T05:18:51;22.58;;;6.30;;
49384;SDS011;36795;45.028;38.968;2022-11-21T05:21:37;22.35;;;5.93;;
49384;SDS011;36795;45.028;38.968;2022-11-21T05:24:23;20.15;;;5.82;;
49384;SDS011;36795;45.028;38.968;2022-11-21T05:27:09;26.15;;;6.60;;
49384;SDS011;36795;45.028;38.968;2022-11-21T05:29:55;26.65;;;7.18;;
49384;SDS011;36795;45.028;38.968;2022-11-21T05:32:42;25.42;;;6.72;;
49384;SDS011;36795;45.028;38.968;2022-11-21T05:35:28;23.42;;;6.65;;
49384;SDS011;36795;45.028;38.968;2022-11-21T05:38:14;23.12;;;5.68;;
49384;SDS011;36795;45.028;38.968;2022-11-21T05:41:00;23.20;;;5.78;;
49384;SDS011;36795;45.028;38.968;2022-11-21T05:43:46;25.50;;;5.85;;
49384;SDS011;36795;45.028;38.968;2022-11-21T05:46:34;23.73;;;5.53;;
49384;SDS011;36795;45.028;38.968;2022-11-21T05:49:21;26.42;;;6.53;;
49384;SDS011;36795;45.028;38.968;2022-11-21T05:52:06;25.60;;;5.68;;
49384;SDS011;36795;45.028;38.968;2022-11-21T05:54:52;23.23;;;6.35;;
49384;SDS011;36795;45.028;38.968;2022-11-21T05:57:38;19.48;;;5.95;;
49384;SDS011;36795;45.028;38.968;2022-11-21T06:00:25;20.02;;;5.85;;
49384;SDS011;36795;45.028;38.968;2022-11-21T06:03:12;23.15;;;5.40;;
49384;SDS011;36795;45.028;38.968;2022-11-21T06:06:16;24.40;;;5.90;;
49384;SDS011;36795;45.028;38.968;2022-11-21T06:09:03;26.35;;;5.70;;
49384;SDS011;36795;45.028;38.968;2022-11-21T06:11:49;22.70;;;5.93;;
49384;SDS011;36795;45.028;38.968;2022-11-21T06:14:35;22.67;;;5.12;;
49384;SDS011;36795;45.028;38.968;2022-11-21T06:17:21;26.73;;;5.53;;
49384;SDS011;36795;45.028;38.968;2022-11-21T06:20:07;24.65;;;5.72;;
49384;SDS011;36795;45.028;38.968;2022-11-21T06:22:54;18.67;;;4.65;;
49384;SDS011;36795;45.028;38.968;2022-11-21T06:25:40;18.48;;;4.80;;
49384;SDS011;36795;45.028;38.968;2022-11-21T06:28:30;24.77;;;5.40;;
49384;SDS011;36795;45.028;38.968;2022-11-21T06:31:21;24.40;;;6.22;;
49384;SDS011;36795;45.028;38.968;2022-11-21T06:34:09;23.60;;;5.82;;
49384;SDS011;36795;45.028;38.968;2022-11-21T06:36:55;24.25;;;5.85;;
49384;SDS011;36795;45.028;38.968;2022-11-21T06:39:41;20.67;;;5.15;;
49384;SDS011;36795;45.028;38.968;2022-11-21T06:42:28;21.87;;;6.00;;
49384;SDS011;36795;45.028;38.968;2022-11-21T06:45:15;23.27;;;6.25;;
49384;SDS011;36795;45.028;38.968;2022-11-21T06:48:02;19.95;;;5.78;;
49384;SDS011;36795;45.028;38.968;2022-11-21T06:50:48;21.83;;;5.57;;
49384;SDS011;36795;45.028;38.968;2022-11-21T06:53:34;27.92;;;5.87;;
49384;SDS011;36795;45.028;38.968;2022-11-21T06:56:20;25.33;;;5.55;;
49384;SDS011;36795;45.028;38.968;2022-11-21T06:59:10;25.35;;;8.23;;
49384;SDS011;36795;45.028;38.968;2022-11-21T07:01:56;24.25;;;6.28;;
49384;SDS011;36795;45.028;38.968;2022-11-21T07:04:42;20.52;;;5.97;;
49384;SDS011;36795;45.028;38.968;2022-11-21T07:07:28;27.15;;;6.70;;
49384;SDS011;36795;45.028;38.968;2022-11-21T07:10:14;25.73;;;6.18;;
49384;SDS011;36795;45.028;38.968;2022-11-21T07:13:00;26.02;;;6.40;;
49384;SDS011;36795;45.028;38.968;2022-11-21T07:16:06;27.37;;;6.55;;
49384;SDS011;36795;45.028;38.968;2022-11-21T07:18:54;24.23;;;5.95;;
49384;SDS011;36795;45.028;38.968;2022-11-21T07:21:40;23.62;;;6.20;;
49384;SDS011;36795;45.028;38.968;2022-11-21T07:24:27;24.87;;;6.18;;
49384;SDS011;36795;45.028;38.968;2022-11-21T07:27:13;20.48;;;5.75;;
49384;SDS011;36795;45.028;38.968;2022-11-21T07:29:59;21.75;;;6.80;;
49384;SDS011;36795;45.028;38.968;2022-11-21T07:32:45;22.50;;;5.18;;
49384;SDS011;36795;45.028;38.968;2022-11-21T07:35:31;19.33;;;4.68;;
49384;SDS011;36795;45.028;38.968;2022-11-21T07:38:18;18.85;;;4.75;;
49384;SDS011;36795;45.028;38.968;2022-11-21T07:41:04;20.67;;;5.65;;
49384;SDS011;36795;45.028;38.968;2022-11-21T07:43:50;15.63;;;4.62;;
49384;SDS011;36795;45.028;38.968;2022-11-21T07:46:36;19.05;;;4.60;;
49384;SDS011;36795;45.028;38.968;2022-11-21T07:49:23;18.80;;;4.55;;
49384;SDS011;36795;45.028;38.968;2022-11-21T07:52:09;16.42;;;4.57;;
49384;SDS011;36795;45.028;38.968;2022-11-21T07:54:55;16.37;;;4.25;;
49384;SDS011;36795;45.028;38.968;2022-11-21T07:57:41;16.87;;;4.22;;
49384;SDS011;36795;45.028;38.968;2022-11-21T08:00:28;17.65;;;4.47;;
49384;SDS011;36795;45.028;38.968;2022-11-21T08:03:15;17.05;;;3.58;;
49384;SDS011;36795;45.028;38.968;2022-11-21T08:06:02;15.70;;;3.85;;
49384;SDS011;36795;45.028;38.968;2022-11-21T08:08:52;15.43;;;3.70;;
49384;SDS011;36795;45.028;38.968;2022-11-21T08:11:38;15.77;;;3.80;;
49384;SDS011;36795;45.028;38.968;2022-11-21T08:14:25;17.27;;;3.60;;
49384;SDS011;36795;45.028;38.968;2022-11-21T08:17:11;13.07;;;3.42;;
49384;SDS011;36795;45.028;38.968;2022-11-21T08:19:58;18.60;;;4.35;;
49384;SDS011;36795;45.028;38.968;2022-11-21T08:22:44;13.80;;;3.87;;
49384;SDS011;36795;45.028;38.968;2022-11-21T08:25:31;17.52;;;4.18;;
49384;SDS011;36795;45.028;38.968;2022-11-21T08:28:21;16.30;;;3.70;;
49384;SDS011;36795;45.028;38.968;2022-11-21T08:31:08;14.63;;;4.07;;
49384;SDS011;36795;45.028;38.968;2022-11-21T08:33:56;20.08;;;4.28;;
49384;SDS011;36795;45.028;38.968;2022-11-21T08:36:43;17.42;;;3.95;;
49384;SDS011;36795;45.028;38.968;2022-11-21T08:39:28;14.90;;;3.95;;
49384;SDS011;36795;45.028;38.968;2022-11-21T08:42:15;17.27;;;4.20;;
49384;SDS011;36795;45.028;38.968;2022-11-21T08:45:01;15.48;;;3.95;;
49384;SDS011;36795;45.028;38.968;2022-11-21T08:47:49;19.42;;;4.70;;
49384;SDS011;36795;45.028;38.968;2022-11-21T08:50:36;16.50;;;4.53;;
49384;SDS011;36795;45.028;38.968;2022-11-21T08:53:22;18.52;;;4.68;;
49384;SDS011;36795;45.028;38.968;2022-11-21T08:56:08;16.35;;;4.20;;
49384;SDS011;36795;45.028;38.968;2022-11-21T08:58:54;18.50;;;4.20;;
49384;SDS011;36795;45.028;38.968;2022-11-21T09:01:40;23.15;;;4.30;;
49384;SDS011;36795;45.028;38.968;2022-11-21T09:04:26;16.55;;;4.00;;
49384;SDS011;36795;45.028;38.968;2022-11-21T09:07:12;17.02;;;4.03;;
49384;SDS011;36795;45.028;38.968;2022-11-21T09:09:58;15.98;;;4.07;;
49384;SDS011;36795;45.028;38.968;2022-11-21T09:12:44;13.93;;;3.55;;
49384;SDS011;36795;45.028;38.968;2022-11-21T09:15:33;18.83;;;4.47;;
49384;SDS011;36795;45.028;38.968;2022-11-21T09:18:37;16.52;;;4.00;;
49384;SDS011;36795;45.028;38.968;2022-11-21T09:21:24;21.50;;;5.47;;
49384;SDS011;36795;45.028;38.968;2022-11-21T09:24:09;13.00;;;3.62;;
49384;SDS011;36795;45.028;38.968;2022-11-21T09:26:56;21.60;;;4.53;;
49384;SDS011;36795;45.028;38.968;2022-11-21T09:29:41;16.25;;;3.75;;
49384;SDS011;36795;45.028;38.968;2022-11-21T09:32:27;18.17;;;3.87;;
49384;SDS011;36795;45.028;38.968;2022-11-21T09:35:14;18.60;;;4.22;;
49384;SDS011;36795;45.028;38.968;2022-11-21T09:38:00;18.17;;;3.97;;
49384;SDS011;36795;45.028;38.968;2022-11-21T09:40:46;22.30;;;4.60;;
49384;SDS011;36795;45.028;38.968;2022-11-21T09:43:52;20.30;;;4.95;;
49384;SDS011;36795;45.028;38.968;2022-11-21T09:46:46;18.17;;;3.92;;
49384;SDS011;36795;45.028;38.968;2022-11-21T09:49:40;13.15;;;3.62;;
49384;SDS011;36795;45.028;38.968;2022-11-21T09:58:30;19.52;;;4.40;;
49384;SDS011;36795;45.028;38.968;2022-11-21T10:01:21;21.40;;;5.30;;
49384;SDS011;36795;45.028;38.968;2022-11-21T10:04:08;15.52;;;4.30;;
49384;SDS011;36795;45.028;38.968;2022-11-21T10:07:04;19.83;;;4.53;;
49384;SDS011;36795;45.028;38.968;2022-11-21T10:13:08;21.05;;;4.50;;
49384;SDS011;36795;45.028;38.968;2022-11-21T10:19:43;21.15;;;5.20;;
49384;SDS011;36795;45.028;38.968;2022-11-21T10:22:48;20.60;;;4.93;;
49384;SDS011;36795;45.028;38.968;2022-11-21T10:26:05;20.75;;;5.07;;
49384;SDS011;36795;45.028;38.968;2022-11-21T10:35:22;21.35;;;5.37;;
49384;SDS011;36795;45.028;38.968;2022-11-21T10:38:28;19.42;;;5.10;;
49384;SDS011;36795;45.028;38.968;2022-11-21T10:47:32;25.70;;;5.12;;
49384;SDS011;36795;45.028;38.968;2022-11-21T10:50:24;19.65;;;4.70;;
49384;SDS011;36795;45.028;38.968;2022-11-21T10:56:22;19.92;;;5.28;;
49384;SDS011;36795;45.028;38.968;2022-11-21T10:59:12;22.60;;;5.37;;
49384;SDS011;36795;45.028;38.968;2022-11-21T11:08:07;22.40;;;4.57;;
49384;SDS011;36795;45.028;38.968;2022-11-21T11:11:05;20.33;;;4.53;;
49384;SDS011;36795;45.028;38.968;2022-11-21T11:13:59;18.55;;;4.62;;
49384;SDS011;36795;45.028;38.968;2022-11-21T11:16:57;17.95;;;4.28;;
49384;SDS011;36795;45.028;38.968;2022-11-21T11:19:58;18.17;;;4.62;;
49384;SDS011;36795;45.028;38.968;2022-11-21T11:22:49;21.92;;;5.18;;
49384;SDS011;36795;45.028;38.968;2022-11-21T11:25:35;17.50;;;4.85;;
49384;SDS011;36795;45.028;38.968;2022-11-21T11:28:22;18.05;;;4.62;;
49384;SDS011;36795;45.028;38.968;2022-11-21T11:31:10;20.35;;;4.50;;
49384;SDS011;36795;45.028;38.968;2022-11-21T11:33:56;17.27;;;4.37;;
49384;SDS011;36795;45.028;38.968;2022-11-21T11:49:04;26.60;;;8.52;;
49384;SDS011;36795;45.028;38.968;2022-11-21T11:52:01;25.90;;;8.00;;
49384;SDS011;36795;45.028;38.968;2022-11-21T11:54:51;23.27;;;6.70;;
49384;SDS011;36795;45.028;38.968;2022-11-21T11:57:42;23.58;;;6.47;;
49384;SDS011;36795;45.028;38.968;2022-11-21T12:06:23;20.85;;;6.57;;
49384;SDS011;36795;45.028;38.968;2022-11-21T12:12:41;24.85;;;7.12;;
49384;SDS011;36795;45.028;38.968;2022-11-21T12:15:46;23.58;;;7.85;;
49384;SDS011;36795;45.028;38.968;2022-11-21T12:18:39;23.70;;;7.70;;
49384;SDS011;36795;45.028;38.968;2022-11-21T12:21:55;30.17;;;9.73;;
49384;SDS011;36795;45.028;38.968;2022-11-21T12:24:41;27.10;;;8.98;;
49384;SDS011;36795;45.028;38.968;2022-11-21T12:27:29;25.45;;;9.48;;
49384;SDS011;36795;45.028;38.968;2022-11-21T12:33:23;27.95;;;8.55;;
49384;SDS011;36795;45.028;38.968;2022-11-21T12:36:21;23.83;;;8.93;;
49384;SDS011;36795;45.028;38.968;2022-11-21T12:39:23;26.12;;;7.53;;
49384;SDS011;36795;45.028;38.968;2022-11-21T12:48:39;28.20;;;8.23;;
49384;SDS011;36795;45.028;38.968;2022-11-21T13:01:17;31.23;;;10.13;;
49384;SDS011;36795;45.028;38.968;2022-11-21T13:04:29;31.40;;;9.45;;
49384;SDS011;36795;45.028;38.968;2022-11-21T13:07:20;27.73;;;9.25;;
49384;SDS011;36795;45.028;38.968;2022-11-21T13:10:13;32.85;;;11.27;;
49384;SDS011;36795;45.028;38.968;2022-11-21T13:13:08;33.78;;;11.18;;
49384;SDS011;36795;45.028;38.968;2022-11-21T13:16:21;30.35;;;9.40;;
49384;SDS011;36795;45.028;38.968;2022-11-21T13:19:29;26.73;;;8.93;;
49384;SDS011;36795;45.028;38.968;2022-11-21T13:28:22;28.67;;;8.80;;
49384;SDS011;36795;45.028;38.968;2022-11-21T13:31:26;34.03;;;9.80;;
49384;SDS011;36795;45.028;38.968;2022-11-21T13:40:53;30.60;;;10.60;;
49384;SDS011;36795;45.028;38.968;2022-11-21T14:02:53;27.40;;;8.95;;
49384;SDS011;36795;45.028;38.968;2022-11-21T14:06:00;27.13;;;7.80;;
49384;SDS011;36795;45.028;38.968;2022-11-21T14:12:18;26.73;;;8.27;;
49384;SDS011;36795;45.028;38.968;2022-11-21T14:17:56;25.27;;;8.00;;
49384;SDS011;36795;45.028;38.968;2022-11-21T14:20:53;29.83;;;7.95;;
49384;SDS011;36795;45.028;38.968;2022-11-21T14:23:42;27.58;;;8.23;;
49384;SDS011;36795;45.028;38.968;2022-11-21T14:26:30;27.90;;;8.30;;
49384;SDS011;36795;45.028;38.968;2022-11-21T14:29:39;29.70;;;8.98;;
49384;SDS011;36795;45.028;38.968;2022-11-21T14:32:28;27.67;;;9.65;;
49384;SDS011;36795;45.028;38.968;2022-11-21T14:35:20;27.25;;;10.15;;
49384;SDS011;36795;45.028;38.968;2022-11-21T14:38:07;33.47;;;11.07;;
49384;SDS011;36795;45.028;38.968;2022-11-21T14:50:19;38.42;;;14.52;;
49384;SDS011;36795;45.028;38.968;2022-11-21T14:53:13;36.42;;;12.65;;
49384;SDS011;36795;45.028;38.968;2022-11-21T14:55:59;31.10;;;12.07;;
49384;SDS011;36795;45.028;38.968;2022-11-21T14:58:46;38.75;;;13.82;;
49384;SDS011;36795;45.028;38.968;2022-11-21T15:01:32;37.72;;;14.02;;
49384;SDS011;36795;45.028;38.968;2022-11-21T15:04:19;42.08;;;15.85;;
49384;SDS011;36795;45.028;38.968;2022-11-21T15:07:57;64.60;;;35.78;;
49384;SDS011;36795;45.028;38.968;2022-11-21T15:10:32;59.25;;;28.33;;
49384;SDS011;36795;45.028;38.968;2022-11-21T15:13:19;48.58;;;28.45;;
49384;SDS011;36795;45.028;38.968;2022-11-21T15:16:09;51.47;;;27.08;;
49384;SDS011;36795;45.028;38.968;2022-11-21T15:18:56;43.45;;;19.27;;
49384;SDS011;36795;45.028;38.968;2022-11-21T15:21:43;30.67;;;14.05;;
49384;SDS011;36795;45.028;38.968;2022-11-21T15:24:30;32.38;;;13.07;;
49384;SDS011;36795;45.028;38.968;2022-11-21T15:33:06;32.78;;;10.27;;
49384;SDS011;36795;45.028;38.968;2022-11-21T15:35:56;25.60;;;9.55;;
49384;SDS011;36795;45.028;38.968;2022-11-21T15:41:34;25.05;;;7.90;;
49384;SDS011;36795;45.028;38.968;2022-11-21T15:44:21;30.95;;;9.07;;
49384;SDS011;36795;45.028;38.968;2022-11-21T15:47:07;25.33;;;7.65;;
49384;SDS011;36795;45.028;38.968;2022-11-21T15:49:53;27.40;;;8.57;;
49384;SDS011;36795;45.028;38.968;2022-11-21T15:52:49;28.15;;;9.15;;
49384;SDS011;36795;45.028;38.968;2022-11-21T15:55:37;29.55;;;10.38;;
49384;SDS011;36795;45.028;38.968;2022-11-21T15:58:23;30.15;;;10.63;;
49384;SDS011;36795;45.028;38.968;2022-11-21T16:01:17;32.70;;;12.77;;
49384;SDS011;36795;45.028;38.968;2022-11-21T16:04:06;34.05;;;12.35;;
49384;SDS011;36795;45.028;38.968;2022-11-21T16:06:53;31.90;;;12.68;;
49384;SDS011;36795;45.028;38.968;2022-11-21T16:09:40;28.05;;;10.73;;
49384;SDS011;36795;45.028;38.968;2022-11-21T16:12:27;27.87;;;9.85;;
49384;SDS011;36795;45.028;38.968;2022-11-21T16:15:13;33.50;;;12.45;;
49384;SDS011;36795;45.028;38.968;2022-11-21T16:17:59;28.23;;;11.10;;
49384;SDS011;36795;45.028;38.968;2022-11-21T16:20:45;30.83;;;10.98;;
49384;SDS011;36795;45.028;38.968;2022-11-21T16:23:31;32.00;;;11.05;;
49384;SDS011;36795;45.028;38.968;2022-11-21T16:26:18;32.63;;;10.88;;
49384;SDS011;36795;45.028;38.968;2022-11-21T16:29:04;32.13;;;10.93;;
49384;SDS011;36795;45.028;38.968;2022-11-21T16:31:50;30.70;;;11.40;;
49384;SDS011;36795;45.028;38.968;2022-11-21T16:34:37;30.88;;;10.88;;
49384;SDS011;36795;45.028;38.968;2022-11-21T16:37:24;28.00;;;10.52;;
49384;SDS011;36795;45.028;38.968;2022-11-21T16:40:10;25.02;;;8.80;;
49384;SDS011;36795;45.028;38.968;2022-11-21T16:42:56;26.55;;;9.05;;
49384;SDS011;36795;45.028;38.968;2022-11-21T16:46:06;26.25;;;9.95;;
49384;SDS011;36795;45.028;38.968;2022-11-21T16:48:57;29.27;;;9.93;;
49384;SDS011;36795;45.028;38.968;2022-11-21T16:51:46;27.70;;;10.05;;
49384;SDS011;36795;45.028;38.968;2022-11-21T16:54:33;36.38;;;14.30;;
49384;SDS011;36795;45.028;38.968;2022-11-21T16:57:19;34.88;;;12.00;;
49384;SDS011;36795;45.028;38.968;2022-11-21T17:00:05;27.58;;;10.52;;
49384;SDS011;36795;45.028;38.968;2022-11-21T17:02:52;29.83;;;11.63;;
49384;SDS011;36795;45.028;38.968;2022-11-21T17:05:39;29.42;;;11.38;;
49384;SDS011;36795;45.028;38.968;2022-11-21T17:08:26;33.72;;;12.65;;
49384;SDS011;36795;45.028;38.968;2022-11-21T17:11:19;34.15;;;13.02;;
49384;SDS011;36795;45.028;38.968;2022-11-21T17:14:08;32.17;;;13.00;;
49384;SDS011;36795;45.028;38.968;2022-11-21T17:16:56;39.55;;;13.55;;
49384;SDS011;36795;45.028;38.968;2022-11-21T17:19:42;29.90;;;12.00;;
49384;SDS011;36795;45.028;38.968;2022-11-21T17:22:28;29.98;;;12.43;;
49384;SDS011;36795;45.028;38.968;2022-11-21T17:25:14;63.85;;;16.02;;
49384;SDS011;36795;45.028;38.968;2022-11-21T17:28:00;30.92;;;13.23;;
49384;SDS011;36795;45.028;38.968;2022-11-21T17:30:47;36.53;;;11.80;;
49384;SDS011;36795;45.028;38.968;2022-11-21T17:33:33;37.97;;;14.98;;
49384;SDS011;36795;45.028;38.968;2022-11-21T17:36:20;27.42;;;10.68;;
49384;SDS011;36795;45.028;38.968;2022-11-21T17:39:08;28.55;;;11.43;;
49384;SDS011;36795;45.028;38.968;2022-11-21T17:41:54;34.00;;;12.20;;
49384;SDS011;36795;45.028;38.968;2022-11-21T17:44:40;33.53;;;12.02;;
49384;SDS011;36795;45.028;38.968;2022-11-21T17:47:26;40.17;;;15.15;;
49384;SDS011;36795;45.028;38.968;2022-11-21T17:50:12;39.03;;;17.12;;
49384;SDS011;36795;45.028;38.968;2022-11-21T17:52:58;46.05;;;19.58;;
49384;SDS011;36795;45.028;38.968;2022-11-21T17:55:47;48.65;;;21.77;;
49384;SDS011;36795;45.028;38.968;2022-11-21T17:58:33;46.15;;;21.40;;
49384;SDS011;36795;45.028;38.968;2022-11-21T18:01:19;55.97;;;23.12;;
49384;SDS011;36795;45.028;38.968;2022-11-21T18:04:06;51.90;;;22.02;;
49384;SDS011;36795;45.028;38.968;2022-11-21T18:06:52;47.62;;;21.42;;
49384;SDS011;36795;45.028;38.968;2022-11-21T18:09:38;50.85;;;20.27;;
49384;SDS011;36795;45.028;38.968;2022-11-21T18:12:24;51.63;;;19.50;;
49384;SDS011;36795;45.028;38.968;2022-11-21T18:15:10;44.03;;;19.52;;
49384;SDS011;36795;45.028;38.968;2022-11-21T18:17:56;61.03;;;21.55;;
49384;SDS011;36795;45.028;38.968;2022-11-21T18:20:42;46.92;;;20.62;;
49384;SDS011;36795;45.028;38.968;2022-11-21T18:23:28;47.00;;;19.52;;
49384;SDS011;36795;45.028;38.968;2022-11-21T18:26:22;52.30;;;18.87;;
49384;SDS011;36795;45.028;38.968;2022-11-21T18:29:13;52.90;;;19.77;;
49384;SDS011;36795;45.028;38.968;2022-11-21T18:31:59;47.85;;;18.02;;
49384;SDS011;36795;45.028;38.968;2022-11-21T18:34:45;46.63;;;19.23;;
49384;SDS011;36795;45.028;38.968;2022-11-21T18:37:32;32.30;;;14.00;;
49384;SDS011;36795;45.028;38.968;2022-11-21T18:40:18;27.77;;;9.95;;
49384;SDS011;36795;45.028;38.968;2022-11-21T18:43:05;28.60;;;10.68;;
49384;SDS011;36795;45.028;38.968;2022-11-21T18:45:51;31.00;;;11.20;;